Weather at Glamoč Air Base [CLOSED]

Public forecast

Using degrees Celsius for public forecast. Weather courtesy of forecast.io.

Closest aviation weather report (METAR) to Glamoč Air Base

Closest report is Split Airport, 39.6 nm (73.4 km) SW.

2024/05/20 12:00 (retrieved 13 minutes ago)

LDSP 201200Z 24009KT CAVOK 25/16 Q1011 NOSIG

Closest aviation forecast (TAF) to Glamoč Air Base

Closest forecast is Split Airport, 39.6 nm (73.4 km) SW.

2024/05/20 12:27 (retrieved 0 seconds ago)

TAF LDSP 201125Z 2012/2112 23009KT CAVOK TX26/2015Z TN19/2101Z BECMG 2015/2017 VRB02KT PROB30 TEMPO 2100/2103 TSRA FEW050CB SCT060 BECMG 2104/2106 11014KT PROB40 TEMPO 2109/2112 TSRA FEW030CB BKN040